Time;durP1;ratioP1;P1;durP2;ratioP2;P2;SDS_P1;SDS_P2;PMS_P1;PMS_P2;Temp;Humidity;BMP_temperature;BMP_pressure;BME280_temperature;BME280_humidity;BME280_pressure;Samples;Min_cycle;Max_cycle;Signal;HPM_P1;HPM_P2
2022/10/15 00:00:47;;;;;;;3.95;1.95;;;10.40;99.90;;;;;;5071130;28;20050;-81
2022/10/15 00:03:15;;;;;;;3.85;2.47;;;10.30;99.90;;;;;;5065937;28;20048;-78
2022/10/15 00:05:42;;;;;;;4.22;2.30;;;10.30;99.90;;;;;;5035611;28;20548;-78
2022/10/15 00:08:11;;;;;;;6.05;2.85;;;10.30;99.90;;;;;;5055120;28;20053;-80
2022/10/15 00:10:40;;;;;;;7.03;2.47;;;10.30;99.90;;;;;;5060946;28;20033;-81
2022/10/15 00:13:07;;;;;;;6.68;2.47;;;10.30;99.90;;;;;;5070551;28;20049;-81
2022/10/15 00:15:36;;;;;;;8.98;3.13;;;10.30;99.90;;;;;;5035747;28;20045;-80
2022/10/15 00:18:03;;;;;;;3.08;2.20;;;10.30;99.90;;;;;;5053064;28;20127;-80
2022/10/15 00:20:30;;;;;;;3.67;1.90;;;10.30;99.90;;;;;;5056146;28;20068;-80
2022/10/15 00:22:57;;;;;;;3.22;1.98;;;10.30;99.90;;;;;;5068064;28;20072;-80
2022/10/15 00:25:25;;;;;;;4.38;2.40;;;10.30;99.90;;;;;;5051279;28;20063;-80
2022/10/15 00:27:53;;;;;;;3.13;1.77;;;10.20;99.90;;;;;;5068303;28;20533;-80
2022/10/15 00:30:20;;;;;;;3.20;2.25;;;10.20;99.90;;;;;;5067671;28;20059;-80
2022/10/15 00:32:48;;;;;;;3.70;2.20;;;10.20;99.90;;;;;;5088452;28;20075;-80
2022/10/15 00:35:15;;;;;;;6.35;2.30;;;10.20;99.90;;;;;;5073521;28;20058;-81
2022/10/15 00:37:44;;;;;;;5.60;2.97;;;10.20;99.90;;;;;;5065258;28;20060;-79
2022/10/15 00:40:13;;;;;;;4.80;2.35;;;10.20;99.90;;;;;;5085908;28;20048;-81
2022/10/15 00:42:40;;;;;;;4.45;2.10;;;10.20;99.90;;;;;;5071810;28;20500;-80
2022/10/15 00:45:13;;;;;;;8.27;2.10;;;10.10;99.90;;;;;;5063285;28;20509;-82
2022/10/15 00:47:42;;;;;;;4.90;2.35;;;10.10;99.90;;;;;;5071845;28;20087;-81
2022/10/15 00:50:13;;;;;;;5.70;2.08;;;10.00;99.90;;;;;;5070404;28;20544;-81
2022/10/15 00:52:46;;;;;;;3.38;2.10;;;10.00;99.90;;;;;;5055145;28;20118;-80
2022/10/15 00:55:17;;;;;;;7.28;2.85;;;9.90;99.90;;;;;;5066866;28;20045;-80
2022/10/15 00:57:47;;;;;;;3.40;2.00;;;9.90;99.90;;;;;;5066474;28;20044;-81
2022/10/15 01:00:18;;;;;;;3.72;2.10;;;9.90;99.90;;;;;;5058433;28;20073;-80
2022/10/15 01:02:46;;;;;;;6.82;2.28;;;9.90;99.90;;;;;;5070027;28;20463;-80
2022/10/15 01:05:16;;;;;;;4.28;1.92;;;9.90;99.90;;;;;;5066483;28;20132;-80
2022/10/15 01:07:43;;;;;;;5.75;2.15;;;9.90;99.90;;;;;;5069018;28;20115;-80
2022/10/15 01:10:12;;;;;;;3.97;2.45;;;9.90;99.90;;;;;;5071785;28;20048;-81
2022/10/15 01:12:55;;;;;;;4.90;2.20;;;9.90;99.90;;;;;;5054023;28;20048;-82
2022/10/15 01:15:33;;;;;;;5.47;3.45;;;9.90;99.90;;;;;;5048704;28;20033;-81
2022/10/15 01:18:07;;;;;;;5.65;2.80;;;9.80;99.90;;;;;;5051437;28;20052;-81
2022/10/15 01:20:52;;;;;;;7.40;2.75;;;9.80;99.90;;;;;;5052059;28;20057;-81
2022/10/15 01:23:47;;;;;;;5.28;2.90;;;9.80;99.90;;;;;;5053343;28;20037;-82
2022/10/15 01:26:31;;;;;;;4.43;2.22;;;9.70;99.90;;;;;;5082903;28;21912;-81
2022/10/15 01:29:06;;;;;;;3.65;2.38;;;9.70;99.90;;;;;;5069102;28;20053;-81
2022/10/15 01:31:45;;;;;;;4.40;2.50;;;9.70;99.90;;;;;;5068019;28;20147;-81
2022/10/15 01:34:17;;;;;;;4.75;2.40;;;9.60;99.90;;;;;;5069918;28;20057;-81
2022/10/15 01:36:51;;;;;;;6.53;2.63;;;9.60;99.90;;;;;;5072410;28;20056;-81
2022/10/15 01:39:27;;;;;;;3.17;2.53;;;9.60;99.90;;;;;;5086414;28;20048;-81
2022/10/15 01:42:00;;;;;;;4.82;2.40;;;9.60;99.90;;;;;;5070435;28;20118;-80
2022/10/15 01:44:34;;;;;;;6.13;2.55;;;9.60;99.90;;;;;;5068589;28;20044;-81
2022/10/15 01:47:21;;;;;;;6.32;2.70;;;9.60;99.90;;;;;;5065540;28;20051;-80
2022/10/15 01:49:52;;;;;;;8.05;3.28;;;9.60;99.90;;;;;;5069691;28;20052;-80
2022/10/15 01:52:25;;;;;;;8.35;3.33;;;9.60;99.90;;;;;;5069689;28;20055;-79
2022/10/15 01:54:54;;;;;;;6.85;3.28;;;9.60;99.90;;;;;;5071741;28;20056;-80
2022/10/15 01:57:27;;;;;;;8.77;3.80;;;9.60;99.90;;;;;;5088973;28;20036;-80
2022/10/15 01:59:54;;;;;;;8.18;3.83;;;9.60;99.90;;;;;;5074708;28;20135;-80
2022/10/15 02:02:25;;;;;;;6.32;3.05;;;9.60;99.90;;;;;;5069176;28;20083;-79
2022/10/15 02:04:52;;;;;;;9.20;3.33;;;9.60;99.90;;;;;;5071344;28;20045;-80
2022/10/15 02:07:31;;;;;;;5.43;3.13;;;9.60;99.90;;;;;;5061158;28;20053;-80
2022/10/15 02:10:04;;;;;;;7.22;2.97;;;9.60;99.90;;;;;;5070981;28;20455;-79
2022/10/15 02:12:40;;;;;;;6.03;3.30;;;9.60;99.90;;;;;;5069718;28;20509;-78
2022/10/15 02:15:17;;;;;;;4.35;2.70;;;9.50;99.90;;;;;;5070392;28;20527;-80
2022/10/15 02:18:05;;;;;;;3.55;2.92;;;9.60;99.90;;;;;;5058850;28;20048;-81
2022/10/15 02:20:40;;;;;;;7.65;2.90;;;9.60;99.90;;;;;;5082130;28;20048;-80
2022/10/15 02:23:13;;;;;;;7.15;3.05;;;9.60;99.90;;;;;;5045640;28;20044;-80
2022/10/15 02:25:41;;;;;;;6.18;3.20;;;9.60;99.90;;;;;;5042079;28;20406;-79
2022/10/15 02:28:11;;;;;;;5.75;3.00;;;9.50;99.90;;;;;;5071599;28;20132;-80
2022/10/15 02:30:42;;;;;;;4.45;2.53;;;9.50;99.90;;;;;;5064545;28;20135;-80
2022/10/15 02:33:13;;;;;;;;;;;9.50;99.90;;;;;;5035290;28;20428;-79
2022/10/15 02:35:42;;;;;;;9.70;3.03;;;9.50;99.90;;;;;;5055563;28;19931;-78
2022/10/15 02:38:12;;;;;;;7.60;2.90;;;9.50;99.90;;;;;;5048944;28;20151;-79
2022/10/15 02:40:43;;;;;;;5.90;2.72;;;9.50;99.90;;;;;;5078941;28;20390;-80
2022/10/15 02:43:13;;;;;;;7.75;3.85;;;9.50;99.90;;;;;;5075402;28;20087;-80
2022/10/15 02:45:40;;;;;;;6.55;3.15;;;9.50;99.90;;;;;;5038172;28;20056;-81
2022/10/15 02:48:08;;;;;;;6.65;2.72;;;9.60;99.90;;;;;;5079467;28;20143;-80
2022/10/15 02:50:37;;;;;;;2.72;2.40;;;9.60;99.90;;;;;;5053140;28;20072;-82
2022/10/15 02:53:05;;;;;;;4.47;2.97;;;9.60;99.90;;;;;;5060492;28;20080;-82
2022/10/15 02:55:34;;;;;;;7.93;3.15;;;9.60;99.90;;;;;;5044743;28;20094;-81
2022/10/15 02:58:01;;;;;;;5.15;3.20;;;9.60;99.90;;;;;;5069309;28;20045;-77
2022/10/15 03:00:28;;;;;;;7.95;2.72;;;9.60;99.90;;;;;;5050288;28;20598;-76
2022/10/15 03:02:56;;;;;;;5.07;3.22;;;9.60;99.90;;;;;;5051778;28;20508;-75
2022/10/15 03:05:23;;;;;;;7.68;2.88;;;9.60;99.90;;;;;;5060359;28;20084;-76
2022/10/15 03:07:52;;;;;;;6.10;2.70;;;9.60;99.90;;;;;;5048604;28;20079;-76
2022/10/15 03:10:20;;;;;;;3.53;2.85;;;9.50;99.90;;;;;;5058105;28;20136;-76
2022/10/15 03:12:47;;;;;;;5.22;3.30;;;9.50;99.90;;;;;;5034450;28;20138;-76
2022/10/15 03:15:15;;;;;;;7.35;3.65;;;9.50;99.90;;;;;;5069077;28;20048;-76
2022/10/15 03:17:44;;;;;;;10.68;3.33;;;9.50;99.90;;;;;;5055586;28;20037;-76
2022/10/15 03:20:12;;;;;;;9.32;3.60;;;9.50;99.90;;;;;;5042711;28;20041;-75
2022/10/15 03:22:40;;;;;;;10.30;3.97;;;9.50;99.90;;;;;;5061853;28;20463;-76
2022/10/15 03:25:09;;;;;;;13.93;4.25;;;9.50;99.90;;;;;;5053388;28;20086;-76
2022/10/15 03:27:36;;;;;;;7.05;3.22;;;9.50;99.90;;;;;;5056488;28;20045;-76
2022/10/15 03:30:11;;;;;;;7.30;3.97;;;9.40;99.90;;;;;;5061221;28;20055;-76
2022/10/15 03:32:39;;;;;;;10.20;3.70;;;9.50;99.90;;;;;;5050654;28;20052;-76
2022/10/15 03:35:08;;;;;;;9.43;4.55;;;9.50;99.90;;;;;;5072000;28;20079;-76
2022/10/15 03:37:36;;;;;;;13.32;3.95;;;9.50;99.90;;;;;;5059248;28;20139;-76
2022/10/15 03:40:04;;;;;;;9.02;3.70;;;9.50;99.90;;;;;;5083306;28;20102;-76
2022/10/15 03:42:33;;;;;;;12.00;4.47;;;9.50;99.90;;;;;;5036862;28;20045;-76
2022/10/15 03:45:02;;;;;;;11.93;4.05;;;9.50;99.90;;;;;;5090051;28;20131;-76
2022/10/15 03:47:30;;;;;;;9.82;4.18;;;9.50;99.90;;;;;;5063949;28;20576;-76
2022/10/15 03:49:58;;;;;;;8.45;3.90;;;9.50;99.90;;;;;;5056704;28;20041;-76
2022/10/15 03:52:25;;;;;;;10.02;4.07;;;9.40;99.90;;;;;;5061356;28;20052;-77
2022/10/15 03:54:54;;;;;;;9.63;4.25;;;9.40;99.90;;;;;;5067282;28;20052;-77
2022/10/15 03:57:21;;;;;;;8.23;4.50;;;9.40;99.90;;;;;;5065882;28;20048;-77
2022/10/15 03:59:55;;;;;;;6.75;3.88;;;9.40;99.90;;;;;;5059307;28;20067;-76
2022/10/15 04:02:25;;;;;;;7.50;4.40;;;9.40;99.90;;;;;;5057056;28;20057;-77
2022/10/15 04:04:53;;;;;;;32.65;14.95;;;9.40;99.90;;;;;;5053903;28;20103;-77
2022/10/15 04:07:20;;;;;;;23.23;13.10;;;9.30;99.90;;;;;;5052889;28;20057;-78
2022/10/15 04:09:47;;;;;;;11.10;4.57;;;9.30;99.90;;;;;;5052849;28;20044;-77
2022/10/15 04:12:34;;;;;;;15.02;5.35;;;9.30;99.90;;;;;;5069113;28;20090;-77
2022/10/15 04:15:04;;;;;;;6.35;4.30;;;9.30;99.90;;;;;;5043143;28;20041;-77
2022/10/15 04:17:31;;;;;;;7.43;4.45;;;9.30;99.90;;;;;;5075879;28;20053;-77
2022/10/15 04:19:59;;;;;;;9.02;4.55;;;9.20;99.90;;;;;;5068006;28;20394;-78
2022/10/15 04:22:27;;;;;;;13.05;4.95;;;9.20;99.90;;;;;;5082810;28;20055;-77
2022/10/15 04:24:59;;;;;;;10.03;4.90;;;9.20;99.90;;;;;;5067445;28;20448;-77
2022/10/15 04:27:30;;;;;;;13.27;4.75;;;9.20;99.90;;;;;;5064257;28;20310;-77
2022/10/15 04:30:13;;;;;;;12.27;5.85;;;9.30;99.90;;;;;;5061894;28;20060;-77
2022/10/15 04:32:46;;;;;;;15.35;4.95;;;9.30;99.90;;;;;;5086124;28;20063;-76
2022/10/15 04:35:18;;;;;;;8.77;4.53;;;9.20;99.90;;;;;;5074387;28;20048;-77
2022/10/15 04:38:17;;;;;;;6.78;4.18;;;9.30;99.90;;;;;;5059375;28;20512;-77
2022/10/15 04:41:02;;;;;;;9.10;4.38;;;9.30;99.90;;;;;;5072571;28;20040;-78
2022/10/15 04:43:42;;;;;;;8.05;5.00;;;9.30;99.90;;;;;;5082882;28;20508;-81
2022/10/15 04:46:13;;;;;;;10.43;4.30;;;9.30;99.90;;;;;;5067889;28;20052;-81
2022/10/15 04:48:41;;;;;;;7.72;3.75;;;9.30;99.90;;;;;;5040623;28;20041;-77
2022/10/15 04:51:13;;;;;;;11.27;5.20;;;9.30;99.90;;;;;;5061316;28;20052;-82
2022/10/15 04:54:00;;;;;;;12.45;4.70;;;9.30;99.90;;;;;;5053164;28;20044;-81
2022/10/15 04:56:32;;;;;;;12.07;5.35;;;9.20;99.90;;;;;;5082605;28;20104;-83
2022/10/15 04:59:06;;;;;;;9.68;5.32;;;9.20;99.90;;;;;;5068662;28;20598;-81
2022/10/15 05:01:40;;;;;;;11.45;4.90;;;9.10;99.90;;;;;;5109504;28;20052;-76
2022/10/15 05:04:10;;;;;;;12.48;4.75;;;9.00;99.90;;;;;;5068410;28;20142;-75
2022/10/15 05:06:40;;;;;;;19.70;5.32;;;9.00;99.90;;;;;;5066723;28;20041;-75
2022/10/15 05:09:19;;;;;;;8.52;4.68;;;9.00;99.90;;;;;;5068036;28;20047;-75
2022/10/15 05:11:50;;;;;;;9.30;4.80;;;9.00;99.90;;;;;;5079380;28;20484;-75
2022/10/15 05:14:17;;;;;;;14.13;5.32;;;8.90;99.90;;;;;;5062354;28;20053;-75
2022/10/15 05:16:55;;;;;;;5.93;4.38;;;8.90;99.90;;;;;;5040036;28;20581;-73
2022/10/15 05:19:22;;;;;;;12.98;5.35;;;9.00;99.90;;;;;;5068669;28;20052;-73
2022/10/15 05:21:49;;;;;;;11.45;4.80;;;9.00;99.90;;;;;;5074001;28;20059;-78
2022/10/15 05:24:24;;;;;;;10.77;4.22;;;9.00;99.90;;;;;;5069263;28;20060;-79
2022/10/15 05:27:01;;;;;;;10.93;3.85;;;8.90;99.90;;;;;;5053665;28;20121;-78
2022/10/15 05:29:32;;;;;;;18.48;4.53;;;8.90;99.90;;;;;;5065189;28;20350;-80
2022/10/15 05:32:02;;;;;;;9.38;3.75;;;8.90;99.90;;;;;;5068671;28;20044;-81
2022/10/15 05:34:29;;;;;;;14.82;5.05;;;8.90;99.90;;;;;;5072386;28;20579;-81
2022/10/15 05:37:01;;;;;;;23.60;12.20;;;8.90;99.90;;;;;;5056208;28;20040;-83
2022/10/15 05:39:29;;;;;;;10.23;4.55;;;9.00;99.90;;;;;;5075263;28;20049;-80
2022/10/15 05:41:57;;;;;;;11.25;4.75;;;9.00;99.90;;;;;;5070919;28;20057;-80
2022/10/15 05:44:35;;;;;;;8.88;3.95;;;9.00;99.90;;;;;;5052638;28;20513;-80
2022/10/15 05:47:03;;;;;;;15.38;4.85;;;9.00;99.90;;;;;;5068093;28;20036;-80
2022/10/15 05:49:32;;;;;;;9.80;4.40;;;9.10;99.90;;;;;;5048392;28;20041;-80
2022/10/15 05:52:29;;;;;;;8.75;3.90;;;9.10;99.90;;;;;;5060223;28;20139;-79
2022/10/15 05:55:26;;;;;;;14.98;4.75;;;9.10;99.90;;;;;;5044548;28;20234;-79
2022/10/15 05:57:54;;;;;;;16.27;4.60;;;9.10;99.90;;;;;;5071063;28;20091;-81
2022/10/15 06:00:21;;;;;;;11.93;4.20;;;9.10;99.90;;;;;;5072495;28;20078;-79
2022/10/15 06:02:54;;;;;;;12.45;4.20;;;9.10;99.90;;;;;;5069847;28;20045;-78
2022/10/15 06:05:22;;;;;;;9.73;4.78;;;9.20;99.90;;;;;;5067154;28;20122;-76
2022/10/15 06:07:50;;;;;;;12.98;5.45;;;9.30;99.90;;;;;;5071825;28;20048;-77
2022/10/15 06:10:17;;;;;;;8.15;3.95;;;9.40;99.90;;;;;;5064496;28;20238;-77
2022/10/15 06:12:49;;;;;;;13.00;4.20;;;9.40;99.90;;;;;;5073395;28;20424;-81
2022/10/15 06:15:16;;;;;;;11.70;4.30;;;9.50;99.90;;;;;;5070528;28;20569;-81
2022/10/15 06:17:44;;;;;;;17.35;5.22;;;9.50;99.90;;;;;;5071409;28;20537;-81
2022/10/15 06:20:13;;;;;;;11.60;4.60;;;9.60;99.90;;;;;;5069434;28;20393;-81
2022/10/15 06:22:40;;;;;;;13.00;4.80;;;9.50;99.90;;;;;;5063903;28;20509;-81
2022/10/15 06:25:09;;;;;;;11.88;4.32;;;9.60;99.90;;;;;;5069273;28;20394;-83
2022/10/15 06:27:36;;;;;;;12.40;3.53;;;9.70;99.90;;;;;;5070724;28;20109;-79
2022/10/15 06:30:04;;;;;;;10.32;4.70;;;9.70;99.90;;;;;;5065749;28;20044;-78
2022/10/15 06:32:32;;;;;;;13.55;4.10;;;9.80;99.90;;;;;;5071958;28;20497;-80
2022/10/15 06:35:04;;;;;;;11.68;4.03;;;9.90;99.90;;;;;;5071686;28;20113;-82
2022/10/15 06:37:38;;;;;;;13.77;4.75;;;9.90;99.90;;;;;;5074107;28;20493;-79
2022/10/15 06:40:06;;;;;;;7.72;4.32;;;9.80;99.90;;;;;;5074738;28;20051;-80
2022/10/15 06:42:34;;;;;;;8.55;4.40;;;9.80;99.90;;;;;;5052748;28;20037;-81
2022/10/15 06:45:02;;;;;;;21.40;4.93;;;9.70;99.90;;;;;;5068420;28;20584;-80
2022/10/15 06:47:31;;;;;;;13.18;4.32;;;9.80;99.90;;;;;;5051137;28;20050;-80
2022/10/15 06:49:58;;;;;;;15.60;5.32;;;9.80;99.90;;;;;;5068577;28;20045;-80
2022/10/15 06:52:25;;;;;;;12.02;5.05;;;9.90;99.90;;;;;;5068447;28;20059;-81
2022/10/15 06:54:54;;;;;;;15.85;4.75;;;10.10;99.90;;;;;;5068485;28;20041;-82
2022/10/15 06:57:24;;;;;;;14.65;4.53;;;10.10;99.90;;;;;;5069201;28;20101;-85
2022/10/15 06:59:52;;;;;;;12.82;5.82;;;10.20;99.90;;;;;;5053594;28;20060;-85
2022/10/15 07:02:20;;;;;;;10.20;4.75;;;10.20;99.90;;;;;;5055108;28;20151;-84
2022/10/15 07:05:12;;;;;;;15.65;4.72;;;10.20;99.90;;;;;;5047191;28;20536;-85
2022/10/15 07:07:40;;;;;;;8.82;4.55;;;10.10;99.90;;;;;;5058805;28;20044;-84
2022/10/15 07:10:14;;;;;;;8.33;4.80;;;10.10;99.90;;;;;;5070468;28;20067;-81
2022/10/15 07:12:51;;;;;;;10.15;4.43;;;10.00;99.90;;;;;;5074007;28;20040;-83
2022/10/15 07:15:20;;;;;;;8.60;4.72;;;9.90;99.90;;;;;;5069820;28;20088;-81
2022/10/15 07:17:48;;;;;;;14.80;5.10;;;9.80;99.90;;;;;;5074781;28;20048;-84
2022/10/15 07:20:16;;;;;;;12.95;4.80;;;9.80;99.90;;;;;;5069680;28;20470;-81
2022/10/15 07:22:44;;;;;;;8.95;4.90;;;9.90;99.90;;;;;;5069746;28;20098;-81
2022/10/15 07:25:13;;;;;;;14.50;5.72;;;9.90;99.90;;;;;;5069286;28;20143;-82
2022/10/15 07:27:41;;;;;;;15.45;6.28;;;9.90;99.90;;;;;;5071884;28;20139;-84
2022/10/15 07:30:10;;;;;;;8.30;5.45;;;9.90;99.90;;;;;;5069027;28;20044;-83
2022/10/15 07:32:37;;;;;;;14.05;4.57;;;9.90;99.90;;;;;;5072260;28;20044;-83
2022/10/15 07:35:05;;;;;;;13.52;5.22;;;10.00;99.90;;;;;;5067410;28;20566;-82
2022/10/15 07:37:33;;;;;;;16.85;5.68;;;10.10;99.90;;;;;;5087093;28;20447;-82
2022/10/15 07:40:19;;;;;;;11.02;5.55;;;10.10;99.90;;;;;;5072886;28;20413;-80
2022/10/15 07:42:52;;;;;;;15.95;5.45;;;10.30;99.90;;;;;;5066925;28;20135;-79
2022/10/15 07:45:23;;;;;;;12.50;5.72;;;10.30;99.90;;;;;;5068558;28;20539;-79
2022/10/15 07:47:54;;;;;;;12.80;6.30;;;10.50;99.90;;;;;;5066380;28;20429;-81
2022/10/15 07:50:22;;;;;;;19.35;7.05;;;10.70;99.90;;;;;;5072010;28;20052;-84
2022/10/15 07:52:49;;;;;;;15.43;6.43;;;10.80;99.90;;;;;;5079439;28;20071;-88
2022/10/15 07:55:18;;;;;;;14.98;6.15;;;11.00;99.90;;;;;;5073587;28;20080;-85
2022/10/15 07:57:48;;;;;;;14.30;6.38;;;11.30;99.90;;;;;;5070468;28;20048;-85
2022/10/15 08:00:16;;;;;;;10.68;6.03;;;11.70;99.90;;;;;;5070961;28;20051;-86
2022/10/15 08:02:44;;;;;;;13.60;6.07;;;12.10;99.90;;;;;;5071496;28;20501;-87
2022/10/15 08:05:13;;;;;;;10.63;5.82;;;13.40;99.90;;;;;;5075609;28;20074;-88
2022/10/15 08:07:43;;;;;;;14.02;5.85;;;15.00;99.90;;;;;;5081412;28;20048;-87
2022/10/15 08:10:12;;;;;;;12.25;5.97;;;16.20;99.90;;;;;;5074806;28;20214;-82
2022/10/15 08:12:41;;;;;;;11.27;6.57;;;17.00;99.90;;;;;;5075353;28;20047;-89
2022/10/15 08:15:09;;;;;;;14.93;5.97;;;17.50;99.90;;;;;;5079799;28;20539;-87
2022/10/15 08:17:37;;;;;;;6.88;4.80;;;18.20;99.90;;;;;;5077129;28;20059;-82
2022/10/15 08:20:06;;;;;;;13.52;5.95;;;18.90;99.90;;;;;;5076886;28;20067;-84
2022/10/15 08:22:39;;;;;;;10.00;5.75;;;19.60;99.90;;;;;;5072270;28;20049;-84
2022/10/15 08:25:11;;;;;;;10.07;5.00;;;20.30;99.90;;;;;;5073234;28;20056;-84
2022/10/15 08:27:45;;;;;;;7.93;5.20;;;20.90;99.90;;;;;;5056472;28;20036;-83
2022/10/15 08:30:13;;;;;;;13.05;5.18;;;21.50;99.90;;;;;;5073054;28;20054;-85
2022/10/15 08:32:41;;;;;;;7.20;4.95;;;21.90;98.80;;;;;;5074960;28;20054;-84
2022/10/15 08:35:08;;;;;;;10.35;5.32;;;21.70;94.50;;;;;;5074102;28;20056;-83
2022/10/15 08:37:36;;;;;;;13.25;6.03;;;20.90;95.30;;;;;;5073386;28;20093;-84
2022/10/15 08:40:04;;;;;;;10.63;6.15;;;19.70;97.00;;;;;;5045986;28;20047;-86
2022/10/15 08:42:39;;;;;;;15.20;8.57;;;18.50;99.20;;;;;;5071703;28;20079;-86
2022/10/15 08:45:22;;;;;;;11.35;5.68;;;18.40;99.90;;;;;;5071166;28;20051;-84
2022/10/15 08:47:58;;;;;;;9.43;5.18;;;19.40;99.90;;;;;;5069458;28;20072;-86
2022/10/15 08:50:36;;;;;;;8.25;5.43;;;20.70;98.70;;;;;;5076122;28;20083;-81
2022/10/15 08:53:04;;;;;;;11.10;6.20;;;21.60;94.70;;;;;;5069868;28;20044;-84
2022/10/15 08:55:38;;;;;;;13.68;6.13;;;21.30;92.90;;;;;;5071014;28;20087;-81
2022/10/15 08:58:14;;;;;;;10.02;5.90;;;21.00;94.70;;;;;;5068930;28;20045;-80
2022/10/15 09:00:50;;;;;;;10.60;6.22;;;21.00;93.10;;;;;;5071017;28;20463;-81
2022/10/15 09:03:31;;;;;;;12.77;6.45;;;20.00;93.40;;;;;;5065704;28;20052;-81
2022/10/15 09:06:09;;;;;;;9.52;6.38;;;18.60;95.80;;;;;;5079500;28;20049;-81
2022/10/15 09:08:47;;;;;;;10.13;6.47;;;18.10;99.30;;;;;;5073300;28;20041;-81
2022/10/15 09:11:28;;;;;;;14.48;5.85;;;18.00;99.90;;;;;;5077688;28;20056;-79
2022/10/15 09:13:57;;;;;;;11.30;6.10;;;18.20;99.90;;;;;;5082207;28;20055;-82
2022/10/15 09:16:32;;;;;;;8.05;5.60;;;18.90;99.50;;;;;;5059580;28;20151;-81
2022/10/15 09:19:03;;;;;;;11.05;6.40;;;18.70;98.30;;;;;;5073547;28;20055;-81
2022/10/15 09:21:32;;;;;;;8.88;5.72;;;18.20;99.90;;;;;;5072079;28;20049;-79
2022/10/15 09:24:02;;;;;;;12.75;6.20;;;17.90;99.90;;;;;;5069761;28;20500;-79
2022/10/15 09:26:34;;;;;;;11.40;6.57;;;17.70;99.90;;;;;;5071076;28;20411;-80
2022/10/15 09:29:05;;;;;;;;;;;17.40;99.90;;;;;;5072539;28;20504;-78
2022/10/15 09:31:44;;;;;;;14.68;7.05;;;16.90;99.90;;;;;;5076201;28;20352;-82
2022/10/15 09:34:17;;;;;;;11.85;7.00;;;16.70;99.90;;;;;;5072935;28;20135;-81
2022/10/15 09:36:50;;;;;;;11.40;6.80;;;16.50;99.90;;;;;;5076210;28;20048;-83
2022/10/15 09:39:38;;;;;;;13.57;6.72;;;16.10;99.90;;;;;;5075221;28;20052;-83
2022/10/15 09:42:21;;;;;;;9.25;6.25;;;15.90;99.90;;;;;;5073932;28;20052;-82
2022/10/15 09:44:49;;;;;;;10.00;6.65;;;15.60;99.90;;;;;;5072714;28;20052;-82
2022/10/15 09:47:23;;;;;;;13.07;6.75;;;15.30;99.90;;;;;;5073338;28;20063;-83
2022/10/15 09:49:58;;;;;;;12.80;7.28;;;15.10;99.90;;;;;;5076419;28;20046;-85
2022/10/15 09:52:38;;;;;;;15.07;7.00;;;15.00;99.90;;;;;;5077151;28;20036;-86
2022/10/15 09:55:18;;;;;;;14.75;6.70;;;15.10;99.90;;;;;;5074989;28;20143;-86
2022/10/15 09:57:51;;;;;;;15.60;6.90;;;15.30;99.90;;;;;;5078166;28;20060;-83
2022/10/15 10:00:21;;;;;;;8.77;6.43;;;15.40;99.90;;;;;;5078230;28;20076;-84
2022/10/15 10:03:05;;;;;;;16.42;7.68;;;15.60;99.90;;;;;;5060010;28;20049;-83
2022/10/15 10:05:38;;;;;;;13.15;7.65;;;16.00;99.90;;;;;;5073479;28;20051;-83
2022/10/15 10:08:17;;;;;;;11.30;7.18;;;16.60;99.90;;;;;;5074011;28;20052;-86
2022/10/15 10:10:53;;;;;;;16.15;7.80;;;16.70;99.90;;;;;;5052131;28;20049;-84
2022/10/15 10:13:27;;;;;;;26.77;8.35;;;16.90;99.90;;;;;;5053973;28;20055;-85
2022/10/15 10:15:56;;;;;;;23.95;8.60;;;17.50;99.90;;;;;;5071395;28;20056;-84
2022/10/15 10:18:27;;;;;;;17.05;8.68;;;18.20;99.90;;;;;;5069572;28;20043;-85
2022/10/15 10:21:00;;;;;;;16.95;8.75;;;18.30;99.90;;;;;;5076054;28;20114;-86
2022/10/15 10:23:33;;;;;;;15.18;7.90;;;18.30;99.90;;;;;;5083126;28;20040;-86
2022/10/15 10:26:05;;;;;;;17.30;8.23;;;17.90;99.90;;;;;;5082067;28;20056;-87
2022/10/15 10:28:45;;;;;;;14.63;7.40;;;17.70;99.90;;;;;;5083967;28;20048;-86
2022/10/15 10:31:15;;;;;;;15.70;6.95;;;17.70;99.90;;;;;;5096537;28;20052;-87
2022/10/15 10:33:49;;;;;;;15.68;7.00;;;17.70;99.90;;;;;;5078195;28;20593;-86
2022/10/15 10:36:28;;;;;;;9.23;6.20;;;18.10;99.90;;;;;;5082332;28;20053;-86
2022/10/15 10:39:01;;;;;;;11.15;6.30;;;18.70;99.90;;;;;;5061815;28;20040;-85
2022/10/15 10:41:49;;;;;;;18.50;5.65;;;19.00;99.90;;;;;;5075914;28;20147;-81
2022/10/15 10:44:22;;;;;;;12.70;5.70;;;19.50;99.90;;;;;;5067471;28;20053;-80
2022/10/15 10:47:14;;;;;;;9.07;6.10;;;20.70;99.90;;;;;;5070554;28;20432;-79
2022/10/15 10:49:46;;;;;;;11.80;5.75;;;21.70;98.10;;;;;;5069087;28;20058;-79
2022/10/15 10:52:27;;;;;;;12.55;6.20;;;22.40;93.70;;;;;;5066960;28;20152;-79
2022/10/15 10:55:02;;;;;;;14.02;6.05;;;22.00;92.90;;;;;;5086976;28;20078;-84
2022/10/15 10:57:45;;;;;;;12.90;6.40;;;20.90;93.10;;;;;;5050858;28;20048;-86
2022/10/15 11:00:17;;;;;;;12.43;6.25;;;19.90;94.80;;;;;;5073115;28;20048;-86
2022/10/15 11:02:52;;;;;;;13.95;6.18;;;19.60;96.40;;;;;;5047988;28;20055;-83
2022/10/15 11:05:28;;;;;;;12.50;5.45;;;19.40;97.50;;;;;;5072672;28;20056;-86
2022/10/15 11:08:02;;;;;;;14.52;5.57;;;19.40;97.90;;;;;;5070752;28;20048;-85
2022/10/15 11:10:34;;;;;;;13.07;6.10;;;19.60;97.70;;;;;;5070866;28;20511;-80
2022/10/15 11:13:15;;;;;;;20.33;6.38;;;19.70;96.60;;;;;;5063076;28;20044;-79
2022/10/15 11:15:52;;;;;;;15.00;6.18;;;19.60;96.60;;;;;;5063287;28;20087;-79
2022/10/15 11:18:32;;;;;;;9.80;5.85;;;19.60;97.00;;;;;;5067776;28;20044;-78
2022/10/15 11:21:14;;;;;;;14.02;5.80;;;19.80;96.40;;;;;;5067215;28;20056;-78
2022/10/15 11:24:08;;;;;;;13.77;6.32;;;19.80;96.30;;;;;;5069532;28;20514;-78
2022/10/15 11:27:00;;;;;;;12.02;6.57;;;19.70;96.30;;;;;;5065999;28;20097;-79
2022/10/15 11:29:49;;;;;;;11.40;6.57;;;20.10;96.00;;;;;;5064740;28;20053;-79
2022/10/15 11:32:37;;;;;;;12.52;6.25;;;21.00;93.90;;;;;;5066165;28;20064;-79
2022/10/15 11:35:26;;;;;;;8.38;5.93;;;21.40;92.70;;;;;;5069841;28;20060;-85
2022/10/15 11:38:13;;;;;;;9.07;5.90;;;21.50;91.70;;;;;;5076004;28;20052;-84
2022/10/15 11:40:56;;;;;;;12.05;6.40;;;21.00;92.00;;;;;;5078563;28;20041;-82
2022/10/15 11:43:44;;;;;;;13.50;6.50;;;20.20;92.80;;;;;;5074356;28;20049;-82
2022/10/15 11:46:20;;;;;;;13.80;7.03;;;19.20;94.80;;;;;;5074627;28;20052;-78
2022/10/15 11:49:02;;;;;;;10.70;7.07;;;18.40;96.70;;;;;;5070863;28;20048;-78
2022/10/15 11:51:34;;;;;;;13.75;6.70;;;17.70;98.30;;;;;;5068752;28;20216;-78
2022/10/15 11:54:24;;;;;;;10.03;6.43;;;17.30;99.90;;;;;;5069020;28;20126;-81
2022/10/15 11:56:54;;;;;;;11.85;6.32;;;17.00;99.90;;;;;;5019883;28;20064;-78
2022/10/15 11:59:38;;;;;;;9.75;6.55;;;17.20;99.90;;;;;;5019057;28;20053;-80
2022/10/15 12:02:12;;;;;;;8.95;6.20;;;17.60;99.90;;;;;;5025697;28;20535;-80
2022/10/15 12:04:45;;;;;;;8.18;5.75;;;17.90;99.90;;;;;;5046050;28;20045;-82
2022/10/15 12:07:18;;;;;;;13.18;6.95;;;18.10;99.90;;;;;;5034313;28;20060;-80
2022/10/15 12:09:52;;;;;;;10.15;5.38;;;18.40;99.90;;;;;;5019777;28;20037;-78
2022/10/15 12:12:36;;;;;;;9.25;6.53;;;18.50;99.90;;;;;;5024166;28;20572;-80
2022/10/15 12:15:20;;;;;;;7.57;5.95;;;18.50;99.60;;;;;;5045516;28;20063;-78
2022/10/15 12:17:53;;;;;;;11.15;5.82;;;18.20;99.90;;;;;;5013070;28;20053;-78
2022/10/15 12:20:22;;;;;;;10.13;6.35;;;18.20;99.70;;;;;;5029920;28;20046;-78
2022/10/15 12:22:58;;;;;;;10.07;7.10;;;18.00;99.90;;;;;;5021788;28;20038;-79
2022/10/15 12:25:51;;;;;;;13.85;7.40;;;17.50;99.90;;;;;;5018454;28;20038;-79
2022/10/15 12:28:22;;;;;;;11.90;6.65;;;16.90;99.90;;;;;;5012686;28;20489;-79
2022/10/15 12:30:59;;;;;;;11.48;7.07;;;16.50;99.90;;;;;;5020032;28;20049;-78
2022/10/15 12:33:34;;;;;;;11.90;6.90;;;16.30;99.90;;;;;;5011921;28;20120;-79
2022/10/15 12:36:08;;;;;;;12.95;6.75;;;16.10;99.90;;;;;;5022088;28;20038;-79
2022/10/15 12:38:37;;;;;;;12.20;6.22;;;15.90;99.90;;;;;;5022580;28;20050;-77
2022/10/15 12:41:08;;;;;;;16.27;7.30;;;15.80;99.90;;;;;;5030659;28;20045;-75
2022/10/15 12:43:39;;;;;;;17.00;6.82;;;15.80;99.90;;;;;;5020127;28;20045;-75
2022/10/15 12:46:09;;;;;;;12.90;6.80;;;15.90;99.90;;;;;;5024026;28;20053;-75
2022/10/15 12:48:39;;;;;;;18.65;6.35;;;15.80;99.90;;;;;;5017113;28;20559;-75
2022/10/15 12:51:37;;;;;;;13.68;7.00;;;15.80;99.90;;;;;;5016168;28;20079;-75
2022/10/15 12:54:35;;;;;;;13.30;7.15;;;15.80;99.90;;;;;;5029642;28;20057;-76
2022/10/15 12:57:43;;;;;;;10.55;6.22;;;15.60;99.90;;;;;;5025984;28;20049;-78
2022/10/15 13:00:33;;;;;;;16.48;6.68;;;15.40;99.90;;;;;;5019325;28;20049;-77
2022/10/15 13:03:26;;;;;;;14.40;6.05;;;15.20;99.90;;;;;;5029661;28;20037;-76
2022/10/15 13:05:54;;;;;;;14.23;6.15;;;15.10;99.90;;;;;;5018697;28;20046;-75
2022/10/15 13:08:36;;;;;;;17.67;6.10;;;14.90;99.90;;;;;;5025778;28;20370;-75
2022/10/15 13:11:04;;;;;;;12.80;5.95;;;14.80;99.90;;;;;;5016602;28;20052;-75
2022/10/15 13:13:37;;;;;;;13.95;6.32;;;14.70;99.90;;;;;;5013568;28;20528;-81
2022/10/15 13:16:09;;;;;;;9.45;5.90;;;14.70;99.90;;;;;;5025383;28;20405;-84